sensor_id;sensor_type;location;lat;lon;timestamp;temperature;humidity
9544;DHT22;30418;51.45933468;7.33152330;2023-07-13T00:01:13;24.50;44.30
9544;DHT22;30418;51.45933468;7.33152330;2023-07-13T00:03:43;24.50;44.30
9544;DHT22;30418;51.45933468;7.33152330;2023-07-13T00:06:11;24.50;44.20
9544;DHT22;30418;51.45933468;7.33152330;2023-07-13T00:08:40;24.40;44.10
9544;DHT22;30418;51.45933468;7.33152330;2023-07-13T00:11:09;24.40;44.10
9544;DHT22;30418;51.45933468;7.33152330;2023-07-13T00:13:39;24.40;44.10
9544;DHT22;30418;51.45933468;7.33152330;2023-07-13T00:16:09;24.40;44.10
9544;DHT22;30418;51.45933468;7.33152330;2023-07-13T00:18:41;24.40;44.10
9544;DHT22;30418;51.45933468;7.33152330;2023-07-13T00:21:09;24.30;44.10
9544;DHT22;30418;51.45933468;7.33152330;2023-07-13T00:23:40;24.30;44.10
9544;DHT22;30418;51.45933468;7.33152330;2023-07-13T00:26:10;24.30;44.20
9544;DHT22;30418;51.45933468;7.33152330;2023-07-13T00:28:40;24.30;44.40
9544;DHT22;30418;51.45933468;7.33152330;2023-07-13T00:31:12;24.30;44.40
9544;DHT22;30418;51.45933468;7.33152330;2023-07-13T00:33:42;24.30;44.50
9544;DHT22;30418;51.45933468;7.33152330;2023-07-13T00:36:11;24.30;44.50
9544;DHT22;30418;51.45933468;7.33152330;2023-07-13T00:38:40;24.30;44.60
9544;DHT22;30418;51.45933468;7.33152330;2023-07-13T00:41:09;24.30;44.50
9544;DHT22;30418;51.45933468;7.33152330;2023-07-13T00:43:40;24.20;44.40
9544;DHT22;30418;51.45933468;7.33152330;2023-07-13T00:46:18;24.20;44.40
9544;DHT22;30418;51.45933468;7.33152330;2023-07-13T00:48:51;24.20;44.40
9544;DHT22;30418;51.45933468;7.33152330;2023-07-13T00:51:24;24.20;44.40
9544;DHT22;30418;51.45933468;7.33152330;2023-07-13T00:53:58;24.20;44.50
9544;DHT22;30418;51.45933468;7.33152330;2023-07-13T00:56:28;24.20;44.50
9544;DHT22;30418;51.45933468;7.33152330;2023-07-13T00:59:00;24.20;44.40
9544;DHT22;30418;51.45933468;7.33152330;2023-07-13T01:01:31;24.10;44.40
9544;DHT22;30418;51.45933468;7.33152330;2023-07-13T01:04:00;24.10;44.30
9544;DHT22;30418;51.45933468;7.33152330;2023-07-13T01:06:29;24.10;44.30
9544;DHT22;30418;51.45933468;7.33152330;2023-07-13T01:08:59;24.10;44.20
9544;DHT22;30418;51.45933468;7.33152330;2023-07-13T01:11:28;24.10;44.30
9544;DHT22;30418;51.45933468;7.33152330;2023-07-13T01:13:57;24.00;44.20
9544;DHT22;30418;51.45933468;7.33152330;2023-07-13T01:16:27;24.10;44.20
9544;DHT22;30418;51.45933468;7.33152330;2023-07-13T01:19:00;24.00;44.20
9544;DHT22;30418;51.45933468;7.33152330;2023-07-13T01:21:32;24.00;44.30
9544;DHT22;30418;51.45933468;7.33152330;2023-07-13T01:24:01;24.00;44.30
9544;DHT22;30418;51.45933468;7.33152330;2023-07-13T01:26:30;24.00;44.30
9544;DHT22;30418;51.45933468;7.33152330;2023-07-13T01:28:58;23.90;44.20
9544;DHT22;30418;51.45933468;7.33152330;2023-07-13T01:31:27;23.90;44.20
9544;DHT22;30418;51.45933468;7.33152330;2023-07-13T01:33:57;23.90;44.30
9544;DHT22;30418;51.45933468;7.33152330;2023-07-13T01:36:25;23.80;44.20
9544;DHT22;30418;51.45933468;7.33152330;2023-07-13T01:38:55;23.80;44.30
9544;DHT22;30418;51.45933468;7.33152330;2023-07-13T01:41:23;23.80;44.30
9544;DHT22;30418;51.45933468;7.33152330;2023-07-13T01:43:53;23.80;44.30
9544;DHT22;30418;51.45933468;7.33152330;2023-07-13T01:46:22;23.70;44.20
9544;DHT22;30418;51.45933468;7.33152330;2023-07-13T01:48:51;23.70;44.30
9544;DHT22;30418;51.45933468;7.33152330;2023-07-13T01:51:20;23.70;44.40
9544;DHT22;30418;51.45933468;7.33152330;2023-07-13T01:53:48;23.70;44.40
9544;DHT22;30418;51.45933468;7.33152330;2023-07-13T01:56:19;23.70;44.40
9544;DHT22;30418;51.45933468;7.33152330;2023-07-13T01:58:48;23.60;44.40
9544;DHT22;30418;51.45933468;7.33152330;2023-07-13T02:01:16;23.60;44.50
9544;DHT22;30418;51.45933468;7.33152330;2023-07-13T02:03:46;23.60;44.50
9544;DHT22;30418;51.45933468;7.33152330;2023-07-13T02:06:17;23.60;44.50
9544;DHT22;30418;51.45933468;7.33152330;2023-07-13T02:08:47;23.50;44.50
9544;DHT22;30418;51.45933468;7.33152330;2023-07-13T02:11:16;23.50;44.50
9544;DHT22;30418;51.45933468;7.33152330;2023-07-13T02:13:46;23.50;44.50
9544;DHT22;30418;51.45933468;7.33152330;2023-07-13T02:16:14;23.50;44.50
9544;DHT22;30418;51.45933468;7.33152330;2023-07-13T02:18:43;23.50;44.50
9544;DHT22;30418;51.45933468;7.33152330;2023-07-13T02:21:11;23.40;44.40
9544;DHT22;30418;51.45933468;7.33152330;2023-07-13T02:23:40;23.40;44.40
9544;DHT22;30418;51.45933468;7.33152330;2023-07-13T02:26:08;23.40;44.40
9544;DHT22;30418;51.45933468;7.33152330;2023-07-13T02:28:38;23.40;44.40
9544;DHT22;30418;51.45933468;7.33152330;2023-07-13T02:31:10;23.30;44.30
9544;DHT22;30418;51.45933468;7.33152330;2023-07-13T02:33:40;23.30;44.40
9544;DHT22;30418;51.45933468;7.33152330;2023-07-13T02:36:09;23.30;44.40
9544;DHT22;30418;51.45933468;7.33152330;2023-07-13T02:38:38;23.20;44.40
9544;DHT22;30418;51.45933468;7.33152330;2023-07-13T02:41:07;23.20;44.50
9544;DHT22;30418;51.45933468;7.33152330;2023-07-13T02:43:39;23.10;44.50
9544;DHT22;30418;51.45933468;7.33152330;2023-07-13T02:46:10;23.10;44.50
9544;DHT22;30418;51.45933468;7.33152330;2023-07-13T02:48:39;23.10;44.70
9544;DHT22;30418;51.45933468;7.33152330;2023-07-13T02:51:08;23.00;44.60
9544;DHT22;30418;51.45933468;7.33152330;2023-07-13T02:53:36;23.00;44.80
9544;DHT22;30418;51.45933468;7.33152330;2023-07-13T02:56:05;23.00;44.70
9544;DHT22;30418;51.45933468;7.33152330;2023-07-13T02:58:34;23.00;44.80
9544;DHT22;30418;51.45933468;7.33152330;2023-07-13T03:01:11;22.90;44.80
9544;DHT22;30418;51.45933468;7.33152330;2023-07-13T03:03:40;23.00;44.90
9544;DHT22;30418;51.45933468;7.33152330;2023-07-13T03:06:09;22.90;44.80
9544;DHT22;30418;51.45933468;7.33152330;2023-07-13T03:08:46;22.90;44.80
9544;DHT22;30418;51.45933468;7.33152330;2023-07-13T03:11:18;22.90;44.90
9544;DHT22;30418;51.45933468;7.33152330;2023-07-13T03:13:53;22.90;45.00
9544;DHT22;30418;51.45933468;7.33152330;2023-07-13T03:16:25;22.80;44.90
9544;DHT22;30418;51.45933468;7.33152330;2023-07-13T03:18:54;22.80;45.00
9544;DHT22;30418;51.45933468;7.33152330;2023-07-13T03:21:22;22.80;45.00
9544;DHT22;30418;51.45933468;7.33152330;2023-07-13T03:23:51;22.80;45.00
9544;DHT22;30418;51.45933468;7.33152330;2023-07-13T03:26:20;22.80;45.20
9544;DHT22;30418;51.45933468;7.33152330;2023-07-13T03:28:49;22.70;45.20
9544;DHT22;30418;51.45933468;7.33152330;2023-07-13T03:31:28;22.70;45.20
9544;DHT22;30418;51.45933468;7.33152330;2023-07-13T03:33:57;22.70;45.40
9544;DHT22;30418;51.45933468;7.33152330;2023-07-13T03:36:29;22.70;45.40
9544;DHT22;30418;51.45933468;7.33152330;2023-07-13T03:39:02;22.60;45.50
9544;DHT22;30418;51.45933468;7.33152330;2023-07-13T03:41:43;22.60;45.60
9544;DHT22;30418;51.45933468;7.33152330;2023-07-13T03:44:13;22.60;45.60
9544;DHT22;30418;51.45933468;7.33152330;2023-07-13T03:46:43;22.60;45.60
9544;DHT22;30418;51.45933468;7.33152330;2023-07-13T03:49:13;22.60;45.80
9544;DHT22;30418;51.45933468;7.33152330;2023-07-13T03:51:42;22.60;45.80
9544;DHT22;30418;51.45933468;7.33152330;2023-07-13T03:54:10;22.50;45.70
9544;DHT22;30418;51.45933468;7.33152330;2023-07-13T03:56:39;22.50;45.80
9544;DHT22;30418;51.45933468;7.33152330;2023-07-13T03:59:09;22.50;45.90
9544;DHT22;30418;51.45933468;7.33152330;2023-07-13T04:01:38;22.50;46.00
9544;DHT22;30418;51.45933468;7.33152330;2023-07-13T04:04:08;22.50;46.10
9544;DHT22;30418;51.45933468;7.33152330;2023-07-13T04:06:37;22.50;46.10
9544;DHT22;30418;51.45933468;7.33152330;2023-07-13T04:09:05;22.40;46.20
9544;DHT22;30418;51.45933468;7.33152330;2023-07-13T04:11:36;22.50;46.20
9544;DHT22;30418;51.45933468;7.33152330;2023-07-13T04:14:06;22.50;46.30
9544;DHT22;30418;51.45933468;7.33152330;2023-07-13T04:16:35;22.50;46.40
9544;DHT22;30418;51.45933468;7.33152330;2023-07-13T04:19:03;22.40;46.30
9544;DHT22;30418;51.45933468;7.33152330;2023-07-13T04:21:33;22.40;46.40
9544;DHT22;30418;51.45933468;7.33152330;2023-07-13T04:24:01;22.40;46.40
9544;DHT22;30418;51.45933468;7.33152330;2023-07-13T04:26:32;22.40;46.40
9544;DHT22;30418;51.45933468;7.33152330;2023-07-13T04:29:02;22.40;46.60
9544;DHT22;30418;51.45933468;7.33152330;2023-07-13T04:31:31;22.40;46.60
9544;DHT22;30418;51.45933468;7.33152330;2023-07-13T04:34:00;22.40;46.80
9544;DHT22;30418;51.45933468;7.33152330;2023-07-13T04:36:29;22.30;46.80
9544;DHT22;30418;51.45933468;7.33152330;2023-07-13T04:39:00;22.40;47.00
9544;DHT22;30418;51.45933468;7.33152330;2023-07-13T04:41:28;22.30;46.90
9544;DHT22;30418;51.45933468;7.33152330;2023-07-13T04:43:57;22.30;46.90
9544;DHT22;30418;51.45933468;7.33152330;2023-07-13T04:46:25;22.30;47.00
9544;DHT22;30418;51.45933468;7.33152330;2023-07-13T04:48:54;22.30;46.90
9544;DHT22;30418;51.45933468;7.33152330;2023-07-13T04:51:24;22.30;46.90
9544;DHT22;30418;51.45933468;7.33152330;2023-07-13T04:53:53;22.20;47.00
9544;DHT22;30418;51.45933468;7.33152330;2023-07-13T04:56:28;22.20;47.10
9544;DHT22;30418;51.45933468;7.33152330;2023-07-13T04:58:57;22.20;47.20
9544;DHT22;30418;51.45933468;7.33152330;2023-07-13T05:01:26;22.10;47.20
9544;DHT22;30418;51.45933468;7.33152330;2023-07-13T05:03:55;22.10;47.30
9544;DHT22;30418;51.45933468;7.33152330;2023-07-13T05:06:25;22.10;47.40
9544;DHT22;30418;51.45933468;7.33152330;2023-07-13T05:08:54;22.10;47.50
9544;DHT22;30418;51.45933468;7.33152330;2023-07-13T05:11:22;22.10;47.60
9544;DHT22;30418;51.45933468;7.33152330;2023-07-13T05:13:52;22.10;47.70
9544;DHT22;30418;51.45933468;7.33152330;2023-07-13T05:16:21;22.10;47.80
9544;DHT22;30418;51.45933468;7.33152330;2023-07-13T05:18:49;22.10;47.80
9544;DHT22;30418;51.45933468;7.33152330;2023-07-13T05:21:18;22.10;47.90
9544;DHT22;30418;51.45933468;7.33152330;2023-07-13T05:23:47;22.10;48.00
9544;DHT22;30418;51.45933468;7.33152330;2023-07-13T05:26:16;22.10;48.10
9544;DHT22;30418;51.45933468;7.33152330;2023-07-13T05:28:44;22.10;48.10
9544;DHT22;30418;51.45933468;7.33152330;2023-07-13T05:31:14;22.10;48.20
9544;DHT22;30418;51.45933468;7.33152330;2023-07-13T05:33:43;22.20;48.40
9544;DHT22;30418;51.45933468;7.33152330;2023-07-13T05:36:12;22.20;48.50
9544;DHT22;30418;51.45933468;7.33152330;2023-07-13T05:38:40;22.20;48.50
9544;DHT22;30418;51.45933468;7.33152330;2023-07-13T05:41:09;22.20;48.50
9544;DHT22;30418;51.45933468;7.33152330;2023-07-13T05:43:38;22.20;48.60
9544;DHT22;30418;51.45933468;7.33152330;2023-07-13T05:46:06;22.30;48.70
9544;DHT22;30418;51.45933468;7.33152330;2023-07-13T05:48:36;22.30;48.80
9544;DHT22;30418;51.45933468;7.33152330;2023-07-13T05:51:05;22.30;48.90
9544;DHT22;30418;51.45933468;7.33152330;2023-07-13T05:53:34;22.30;48.70
9544;DHT22;30418;51.45933468;7.33152330;2023-07-13T05:56:03;22.30;48.80
9544;DHT22;30418;51.45933468;7.33152330;2023-07-13T05:58:32;22.30;48.80
9544;DHT22;30418;51.45933468;7.33152330;2023-07-13T06:01:02;22.40;48.90
9544;DHT22;30418;51.45933468;7.33152330;2023-07-13T06:03:33;22.40;48.90
9544;DHT22;30418;51.45933468;7.33152330;2023-07-13T06:06:04;22.40;48.90
9544;DHT22;30418;51.45933468;7.33152330;2023-07-13T06:08:33;22.40;48.90
9544;DHT22;30418;51.45933468;7.33152330;2023-07-13T06:11:03;22.40;49.00
9544;DHT22;30418;51.45933468;7.33152330;2023-07-13T06:13:33;22.30;48.90
9544;DHT22;30418;51.45933468;7.33152330;2023-07-13T06:16:02;22.30;48.90
9544;DHT22;30418;51.45933468;7.33152330;2023-07-13T06:18:32;22.30;49.10
9544;DHT22;30418;51.45933468;7.33152330;2023-07-13T06:21:06;22.30;49.10
9544;DHT22;30418;51.45933468;7.33152330;2023-07-13T06:23:36;22.20;49.40
9544;DHT22;30418;51.45933468;7.33152330;2023-07-13T06:26:05;22.20;49.30
9544;DHT22;30418;51.45933468;7.33152330;2023-07-13T06:28:36;22.20;49.40
9544;DHT22;30418;51.45933468;7.33152330;2023-07-13T06:31:06;22.20;49.40
9544;DHT22;30418;51.45933468;7.33152330;2023-07-13T06:33:36;22.20;49.50
9544;DHT22;30418;51.45933468;7.33152330;2023-07-13T06:36:07;22.20;49.60
9544;DHT22;30418;51.45933468;7.33152330;2023-07-13T06:38:37;22.20;49.70
9544;DHT22;30418;51.45933468;7.33152330;2023-07-13T06:41:07;22.10;49.70
9544;DHT22;30418;51.45933468;7.33152330;2023-07-13T06:43:37;22.20;49.90
9544;DHT22;30418;51.45933468;7.33152330;2023-07-13T06:46:05;22.10;49.80
9544;DHT22;30418;51.45933468;7.33152330;2023-07-13T06:48:35;22.20;50.10
9544;DHT22;30418;51.45933468;7.33152330;2023-07-13T06:51:03;22.20;50.20
9544;DHT22;30418;51.45933468;7.33152330;2023-07-13T06:53:33;22.20;50.20
9544;DHT22;30418;51.45933468;7.33152330;2023-07-13T06:56:02;22.20;50.20
9544;DHT22;30418;51.45933468;7.33152330;2023-07-13T06:58:33;22.20;50.30
9544;DHT22;30418;51.45933468;7.33152330;2023-07-13T07:01:02;22.20;50.40
9544;DHT22;30418;51.45933468;7.33152330;2023-07-13T07:03:34;22.20;50.40
9544;DHT22;30418;51.45933468;7.33152330;2023-07-13T07:06:09;22.20;50.80
9544;DHT22;30418;51.45933468;7.33152330;2023-07-13T07:08:42;22.30;50.60
9544;DHT22;30418;51.45933468;7.33152330;2023-07-13T07:11:12;22.30;50.60
9544;DHT22;30418;51.45933468;7.33152330;2023-07-13T07:13:42;22.30;50.70
9544;DHT22;30418;51.45933468;7.33152330;2023-07-13T07:16:11;22.30;50.70
9544;DHT22;30418;51.45933468;7.33152330;2023-07-13T07:18:40;22.40;50.80
9544;DHT22;30418;51.45933468;7.33152330;2023-07-13T07:21:10;22.40;50.80
9544;DHT22;30418;51.45933468;7.33152330;2023-07-13T07:23:40;22.40;50.90
9544;DHT22;30418;51.45933468;7.33152330;2023-07-13T07:26:10;22.40;50.90
9544;DHT22;30418;51.45933468;7.33152330;2023-07-13T07:28:38;22.50;51.00
9544;DHT22;30418;51.45933468;7.33152330;2023-07-13T07:31:14;22.50;51.00
9544;DHT22;30418;51.45933468;7.33152330;2023-07-13T07:33:46;22.60;51.00
9544;DHT22;30418;51.45933468;7.33152330;2023-07-13T07:36:18;22.60;50.90
9544;DHT22;30418;51.45933468;7.33152330;2023-07-13T07:38:50;22.70;51.00
9544;DHT22;30418;51.45933468;7.33152330;2023-07-13T07:41:18;22.80;51.60
9544;DHT22;30418;51.45933468;7.33152330;2023-07-13T07:43:50;22.80;50.80
9544;DHT22;30418;51.45933468;7.33152330;2023-07-13T07:46:18;22.80;50.80
9544;DHT22;30418;51.45933468;7.33152330;2023-07-13T07:48:47;22.80;50.80
9544;DHT22;30418;51.45933468;7.33152330;2023-07-13T07:51:15;22.90;50.90
9544;DHT22;30418;51.45933468;7.33152330;2023-07-13T07:53:45;22.90;50.90
9544;DHT22;30418;51.45933468;7.33152330;2023-07-13T07:56:15;22.90;50.80
9544;DHT22;30418;51.45933468;7.33152330;2023-07-13T07:58:46;23.00;50.80
9544;DHT22;30418;51.45933468;7.33152330;2023-07-13T08:01:18;23.00;50.80
9544;DHT22;30418;51.45933468;7.33152330;2023-07-13T08:03:49;23.00;50.90
9544;DHT22;30418;51.45933468;7.33152330;2023-07-13T08:06:21;23.10;50.90
9544;DHT22;30418;51.45933468;7.33152330;2023-07-13T08:08:54;23.10;51.00
9544;DHT22;30418;51.45933468;7.33152330;2023-07-13T08:11:23;23.20;51.20
9544;DHT22;30418;51.45933468;7.33152330;2023-07-13T08:13:54;23.30;51.30
9544;DHT22;30418;51.45933468;7.33152330;2023-07-13T08:16:23;23.30;51.20
9544;DHT22;30418;51.45933468;7.33152330;2023-07-13T08:18:52;23.40;51.10
9544;DHT22;30418;51.45933468;7.33152330;2023-07-13T08:21:22;23.40;50.80
9544;DHT22;30418;51.45933468;7.33152330;2023-07-13T08:23:50;23.40;50.70
9544;DHT22;30418;51.45933468;7.33152330;2023-07-13T08:26:20;23.40;50.80
9544;DHT22;30418;51.45933468;7.33152330;2023-07-13T08:28:48;23.50;50.90
9544;DHT22;30418;51.45933468;7.33152330;2023-07-13T08:31:17;23.40;50.70
9544;DHT22;30418;51.45933468;7.33152330;2023-07-13T08:33:46;23.50;50.60
9544;DHT22;30418;51.45933468;7.33152330;2023-07-13T08:36:14;23.40;50.60
9544;DHT22;30418;51.45933468;7.33152330;2023-07-13T08:38:43;23.50;50.90
9544;DHT22;30418;51.45933468;7.33152330;2023-07-13T08:41:13;23.50;50.90
9544;DHT22;30418;51.45933468;7.33152330;2023-07-13T08:43:47;23.60;51.10
9544;DHT22;30418;51.45933468;7.33152330;2023-07-13T08:46:21;23.60;51.00
9544;DHT22;30418;51.45933468;7.33152330;2023-07-13T08:48:57;23.70;51.00
9544;DHT22;30418;51.45933468;7.33152330;2023-07-13T08:51:36;23.80;51.00
9544;DHT22;30418;51.45933468;7.33152330;2023-07-13T08:54:16;23.80;51.10
9544;DHT22;30418;51.45933468;7.33152330;2023-07-13T08:56:49;23.90;51.00
9544;DHT22;30418;51.45933468;7.33152330;2023-07-13T08:59:24;24.00;50.90
9544;DHT22;30418;51.45933468;7.33152330;2023-07-13T09:02:08;24.00;50.80
9544;DHT22;30418;51.45933468;7.33152330;2023-07-13T09:04:48;24.10;50.50
9544;DHT22;30418;51.45933468;7.33152330;2023-07-13T09:07:25;24.10;50.30
9544;DHT22;30418;51.45933468;7.33152330;2023-07-13T09:10:05;24.10;50.30
9544;DHT22;30418;51.45933468;7.33152330;2023-07-13T09:12:51;24.10;50.30
9544;DHT22;30418;51.45933468;7.33152330;2023-07-13T09:15:31;24.10;50.30
9544;DHT22;30418;51.45933468;7.33152330;2023-07-13T09:18:06;24.10;50.50
9544;DHT22;30418;51.45933468;7.33152330;2023-07-13T09:20:39;24.10;50.50
9544;DHT22;30418;51.45933468;7.33152330;2023-07-13T09:23:14;24.10;50.60
9544;DHT22;30418;51.45933468;7.33152330;2023-07-13T09:25:45;24.20;50.80
9544;DHT22;30418;51.45933468;7.33152330;2023-07-13T09:28:21;24.30;50.80
9544;DHT22;30418;51.45933468;7.33152330;2023-07-13T09:30:58;24.30;50.70
9544;DHT22;30418;51.45933468;7.33152330;2023-07-13T09:33:30;24.40;50.60
9544;DHT22;30418;51.45933468;7.33152330;2023-07-13T09:35:59;24.40;50.30
9544;DHT22;30418;51.45933468;7.33152330;2023-07-13T09:38:29;24.50;50.30
9544;DHT22;30418;51.45933468;7.33152330;2023-07-13T09:41:11;24.60;50.30
9544;DHT22;30418;51.45933468;7.33152330;2023-07-13T09:44:09;24.60;50.20
9544;DHT22;30418;51.45933468;7.33152330;2023-07-13T09:46:46;24.60;50.10
9544;DHT22;30418;51.45933468;7.33152330;2023-07-13T09:49:17;24.70;50.10
9544;DHT22;30418;51.45933468;7.33152330;2023-07-13T09:51:46;24.60;50.00
9544;DHT22;30418;51.45933468;7.33152330;2023-07-13T09:54:24;24.70;50.00
9544;DHT22;30418;51.45933468;7.33152330;2023-07-13T09:56:56;24.70;50.00
9544;DHT22;30418;51.45933468;7.33152330;2023-07-13T09:59:29;24.60;50.00
9544;DHT22;30418;51.45933468;7.33152330;2023-07-13T10:02:00;24.70;50.10
9544;DHT22;30418;51.45933468;7.33152330;2023-07-13T10:04:32;24.70;50.10
9544;DHT22;30418;51.45933468;7.33152330;2023-07-13T10:07:06;24.70;50.00
9544;DHT22;30418;51.45933468;7.33152330;2023-07-13T10:09:55;24.80;50.00
9544;DHT22;30418;51.45933468;7.33152330;2023-07-13T10:12:25;24.80;50.00
9544;DHT22;30418;51.45933468;7.33152330;2023-07-13T10:14:56;24.80;49.90
9544;DHT22;30418;51.45933468;7.33152330;2023-07-13T10:17:45;24.80;49.90
9544;DHT22;30418;51.45933468;7.33152330;2023-07-13T10:20:14;24.80;49.70
9544;DHT22;30418;51.45933468;7.33152330;2023-07-13T10:22:45;24.90;49.70
9544;DHT22;30418;51.45933468;7.33152330;2023-07-13T10:25:21;25.00;49.80
9544;DHT22;30418;51.45933468;7.33152330;2023-07-13T10:27:53;25.00;49.90
9544;DHT22;30418;51.45933468;7.33152330;2023-07-13T10:30:27;25.00;49.90
9544;DHT22;30418;51.45933468;7.33152330;2023-07-13T10:33:02;25.10;49.90
9544;DHT22;30418;51.45933468;7.33152330;2023-07-13T10:35:32;25.10;49.70
9544;DHT22;30418;51.45933468;7.33152330;2023-07-13T10:38:04;25.20;49.40
9544;DHT22;30418;51.45933468;7.33152330;2023-07-13T10:40:38;25.20;49.20
9544;DHT22;30418;51.45933468;7.33152330;2023-07-13T10:43:15;25.20;49.30
9544;DHT22;30418;51.45933468;7.33152330;2023-07-13T10:45:47;25.20;49.20
9544;DHT22;30418;51.45933468;7.33152330;2023-07-13T10:48:19;25.30;49.30
9544;DHT22;30418;51.45933468;7.33152330;2023-07-13T10:50:51;25.30;49.20
9544;DHT22;30418;51.45933468;7.33152330;2023-07-13T10:53:28;25.30;49.10
9544;DHT22;30418;51.45933468;7.33152330;2023-07-13T10:56:00;25.40;49.00
9544;DHT22;30418;51.45933468;7.33152330;2023-07-13T10:58:34;25.40;48.70
9544;DHT22;30418;51.45933468;7.33152330;2023-07-13T11:01:08;25.40;48.60
9544;DHT22;30418;51.45933468;7.33152330;2023-07-13T11:03:50;25.40;48.60
9544;DHT22;30418;51.45933468;7.33152330;2023-07-13T11:06:34;25.40;48.40
9544;DHT22;30418;51.45933468;7.33152330;2023-07-13T11:12:09;25.40;48.20
9544;DHT22;30418;51.45933468;7.33152330;2023-07-13T11:15:04;25.30;48.10
9544;DHT22;30418;51.45933468;7.33152330;2023-07-13T11:17:48;25.30;48.30
9544;DHT22;30418;51.45933468;7.33152330;2023-07-13T11:20:36;25.40;48.50
9544;DHT22;30418;51.45933468;7.33152330;2023-07-13T11:23:28;25.30;48.50
9544;DHT22;30418;51.45933468;7.33152330;2023-07-13T11:25:58;25.40;48.50
9544;DHT22;30418;51.45933468;7.33152330;2023-07-13T11:28:31;25.40;48.60
9544;DHT22;30418;51.45933468;7.33152330;2023-07-13T11:31:14;25.50;48.50
9544;DHT22;30418;51.45933468;7.33152330;2023-07-13T11:33:58;25.50;48.30
9544;DHT22;30418;51.45933468;7.33152330;2023-07-13T11:36:39;25.60;48.40
9544;DHT22;30418;51.45933468;7.33152330;2023-07-13T11:39:18;25.60;48.40
9544;DHT22;30418;51.45933468;7.33152330;2023-07-13T11:41:51;25.70;48.50
9544;DHT22;30418;51.45933468;7.33152330;2023-07-13T11:44:23;25.80;48.20
9544;DHT22;30418;51.45933468;7.33152330;2023-07-13T11:46:54;25.90;48.00
9544;DHT22;30418;51.45933468;7.33152330;2023-07-13T11:49:30;25.90;47.80
9544;DHT22;30418;51.45933468;7.33152330;2023-07-13T11:52:01;26.00;47.80
9544;DHT22;30418;51.45933468;7.33152330;2023-07-13T11:54:32;26.00;47.70
9544;DHT22;30418;51.45933468;7.33152330;2023-07-13T11:57:06;26.00;47.70
9544;DHT22;30418;51.45933468;7.33152330;2023-07-13T11:59:41;26.10;47.80
9544;DHT22;30418;51.45933468;7.33152330;2023-07-13T12:04:50;26.20;47.70
9544;DHT22;30418;51.45933468;7.33152330;2023-07-13T12:07:22;26.20;47.50
9544;DHT22;30418;51.45933468;7.33152330;2023-07-13T12:09:50;26.20;47.20
9544;DHT22;30418;51.45933468;7.33152330;2023-07-13T12:12:28;26.30;47.30
9544;DHT22;30418;51.45933468;7.33152330;2023-07-13T12:14:57;26.30;46.90
9544;DHT22;30418;51.45933468;7.33152330;2023-07-13T12:17:26;26.30;46.90
9544;DHT22;30418;51.45933468;7.33152330;2023-07-13T12:19:55;26.40;47.00
9544;DHT22;30418;51.45933468;7.33152330;2023-07-13T12:22:25;26.40;47.00
9544;DHT22;30418;51.45933468;7.33152330;2023-07-13T12:24:55;26.50;46.50
9544;DHT22;30418;51.45933468;7.33152330;2023-07-13T12:27:26;26.60;46.40
9544;DHT22;30418;51.45933468;7.33152330;2023-07-13T12:29:59;26.50;46.10
9544;DHT22;30418;51.45933468;7.33152330;2023-07-13T12:32:29;26.60;46.00
9544;DHT22;30418;51.45933468;7.33152330;2023-07-13T12:35:13;26.60;45.80
9544;DHT22;30418;51.45933468;7.33152330;2023-07-13T12:37:45;26.60;45.90
9544;DHT22;30418;51.45933468;7.33152330;2023-07-13T12:40:15;26.70;45.60
9544;DHT22;30418;51.45933468;7.33152330;2023-07-13T12:42:47;26.70;45.50
9544;DHT22;30418;51.45933468;7.33152330;2023-07-13T12:45:19;26.70;45.70
9544;DHT22;30418;51.45933468;7.33152330;2023-07-13T12:47:53;26.80;45.40
9544;DHT22;30418;51.45933468;7.33152330;2023-07-13T12:50:28;26.80;45.30
9544;DHT22;30418;51.45933468;7.33152330;2023-07-13T12:53:02;26.90;45.10
9544;DHT22;30418;51.45933468;7.33152330;2023-07-13T12:55:41;26.90;45.10
9544;DHT22;30418;51.45933468;7.33152330;2023-07-13T12:58:20;27.00;45.10
9544;DHT22;30418;51.45933468;7.33152330;2023-07-13T13:00:54;27.00;44.70
9544;DHT22;30418;51.45933468;7.33152330;2023-07-13T13:03:30;27.00;45.70
9544;DHT22;30418;51.45933468;7.33152330;2023-07-13T13:06:01;27.00;44.70
9544;DHT22;30418;51.45933468;7.33152330;2023-07-13T13:08:34;27.10;44.80
9544;DHT22;30418;51.45933468;7.33152330;2023-07-13T13:11:03;27.10;45.40
9544;DHT22;30418;51.45933468;7.33152330;2023-07-13T13:13:31;27.10;44.50
9544;DHT22;30418;51.45933468;7.33152330;2023-07-13T13:16:02;27.10;44.70
9544;DHT22;30418;51.45933468;7.33152330;2023-07-13T13:18:33;27.10;45.10
9544;DHT22;30418;51.45933468;7.33152330;2023-07-13T13:21:03;27.20;44.40
9544;DHT22;30418;51.45933468;7.33152330;2023-07-13T13:23:33;27.20;44.50
9544;DHT22;30418;51.45933468;7.33152330;2023-07-13T13:26:02;27.20;44.10
9544;DHT22;30418;51.45933468;7.33152330;2023-07-13T13:28:32;27.20;44.10
9544;DHT22;30418;51.45933468;7.33152330;2023-07-13T13:31:00;27.10;43.90
9544;DHT22;30418;51.45933468;7.33152330;2023-07-13T13:33:29;27.10;43.60
9544;DHT22;30418;51.45933468;7.33152330;2023-07-13T13:35:57;27.10;43.60
9544;DHT22;30418;51.45933468;7.33152330;2023-07-13T13:38:27;27.00;43.50
9544;DHT22;30418;51.45933468;7.33152330;2023-07-13T13:40:57;26.90;43.70
9544;DHT22;30418;51.45933468;7.33152330;2023-07-13T13:43:26;26.80;43.70
9544;DHT22;30418;51.45933468;7.33152330;2023-07-13T13:45:57;26.80;43.70
9544;DHT22;30418;51.45933468;7.33152330;2023-07-13T13:48:31;26.70;43.70
9544;DHT22;30418;51.45933468;7.33152330;2023-07-13T13:51:06;26.60;43.90
9544;DHT22;30418;51.45933468;7.33152330;2023-07-13T13:53:44;26.50;44.80
9544;DHT22;30418;51.45933468;7.33152330;2023-07-13T13:56:15;26.30;45.30
9544;DHT22;30418;51.45933468;7.33152330;2023-07-13T13:58:44;26.20;45.70
9544;DHT22;30418;51.45933468;7.33152330;2023-07-13T14:01:16;26.00;45.90
9544;DHT22;30418;51.45933468;7.33152330;2023-07-13T14:03:45;25.80;46.60